createdAt,value
2022-12-10T00:02:15.573Z,10.21
2022-12-10T00:04:49.450Z,10.27
2022-12-10T00:07:21.868Z,10.22
2022-12-10T00:09:54.038Z,10.26
2022-12-10T00:12:26.189Z,10.28
2022-12-10T00:14:58.390Z,10.36
2022-12-10T00:17:30.677Z,10.29
2022-12-10T00:20:02.886Z,9.28
2022-12-10T00:22:35.005Z,7.97
2022-12-10T00:25:07.899Z,7.23
2022-12-10T00:27:40.000Z,7.80
2022-12-10T00:30:14.921Z,8.49
2022-12-10T00:32:47.063Z,9.05
2022-12-10T00:35:19.856Z,9.40
2022-12-10T00:37:52.247Z,9.65
2022-12-10T00:40:25.190Z,9.83
2022-12-10T00:42:58.241Z,9.99
2022-12-10T00:45:30.502Z,10.07
2022-12-10T00:48:02.637Z,10.14
2022-12-10T00:50:34.817Z,10.24
2022-12-10T00:53:07.067Z,10.36
2022-12-10T00:55:39.498Z,10.39
2022-12-10T00:58:11.670Z,10.44
2022-12-10T01:00:43.955Z,10.46
2022-12-10T01:03:16.529Z,10.49
2022-12-10T01:05:50.819Z,10.20
2022-12-10T01:08:23.035Z,8.96
2022-12-10T01:10:57.559Z,7.72
2022-12-10T01:13:29.692Z,7.05
2022-12-10T01:16:04.280Z,7.69
2022-12-10T01:18:36.711Z,8.30
2022-12-10T01:21:10.515Z,8.74
2022-12-10T01:23:44.792Z,9.20
2022-12-10T01:26:18.641Z,9.52
2022-12-10T01:28:52.076Z,9.77
2022-12-10T01:31:27.279Z,9.98
2022-12-10T01:34:00.138Z,10.17
2022-12-10T01:36:34.417Z,10.31
2022-12-10T01:39:08.948Z,10.45
2022-12-10T01:41:43.238Z,10.55
2022-12-10T01:44:46.151Z,10.64
2022-12-10T01:47:18.319Z,10.29
2022-12-10T01:49:50.541Z,9.03
2022-12-10T01:52:24.539Z,7.92
2022-12-10T01:54:56.809Z,7.46
2022-12-10T01:57:30.606Z,8.26
2022-12-10T02:00:07.944Z,9.26
2022-12-10T02:02:58.290Z,9.88
2022-12-10T02:05:39.008Z,10.11
2022-12-10T02:08:20.393Z,10.25
2022-12-10T02:11:10.308Z,10.37
2022-12-10T02:13:45.429Z,10.39
2022-12-10T02:16:22.212Z,10.36
2022-12-10T02:19:00.566Z,10.41
2022-12-10T02:21:38.840Z,10.47
2022-12-10T02:24:12.725Z,10.44
2022-12-10T02:26:50.590Z,10.40
2022-12-10T02:29:27.237Z,10.59
2022-12-10T02:32:03.344Z,10.47
2022-12-10T02:34:40.546Z,9.46
2022-12-10T02:37:17.909Z,8.34
2022-12-10T02:39:55.828Z,7.41
2022-12-10T02:42:30.683Z,6.96
2022-12-10T02:45:04.321Z,7.74
2022-12-10T02:47:37.470Z,8.54
2022-12-10T02:50:15.041Z,8.94
2022-12-10T02:52:47.378Z,9.13
2022-12-10T02:55:21.413Z,9.36
2022-12-10T02:58:08.830Z,9.71
2022-12-10T03:00:50.899Z,9.86
2022-12-10T03:03:34.322Z,9.85
2022-12-10T03:06:13.728Z,9.93
2022-12-10T03:08:51.616Z,10.00
2022-12-10T03:11:27.265Z,10.08
2022-12-10T03:14:04.964Z,9.90
2022-12-10T03:16:43.353Z,9.65
2022-12-10T03:19:19.744Z,9.64
2022-12-10T03:21:53.819Z,9.62
2022-12-10T03:24:29.923Z,9.58
2022-12-10T03:27:02.329Z,9.71
2022-12-10T03:29:39.726Z,9.98
2022-12-10T03:32:12.430Z,10.20
2022-12-10T03:34:46.666Z,10.39
2022-12-10T03:37:19.411Z,9.99
2022-12-10T03:39:52.093Z,8.69
2022-12-10T03:42:25.391Z,7.42
2022-12-10T03:44:57.676Z,6.72
2022-12-10T03:47:29.865Z,7.19
2022-12-10T03:50:02.178Z,7.92
2022-12-10T03:52:34.431Z,8.41
2022-12-10T03:55:08.191Z,8.73
2022-12-10T03:57:41.310Z,8.91
2022-12-10T04:00:15.653Z,9.05
2022-12-10T04:02:47.989Z,9.22
2022-12-10T04:05:20.691Z,9.42
2022-12-10T04:07:53.228Z,9.60
2022-12-10T04:10:25.687Z,9.72
2022-12-10T04:13:11.852Z,9.86
2022-12-10T04:16:02.096Z,9.85
2022-12-10T04:18:34.410Z,9.89
2022-12-10T04:21:24.625Z,9.96
2022-12-10T04:24:14.963Z,9.60
2022-12-10T04:26:56.359Z,8.11
2022-12-10T04:29:30.436Z,6.86
2022-12-10T04:32:02.769Z,6.20
2022-12-10T04:34:35.706Z,6.69
2022-12-10T04:37:08.566Z,7.36
2022-12-10T04:39:41.472Z,8.04
2022-12-10T04:42:13.861Z,8.62
2022-12-10T04:44:46.227Z,9.00
2022-12-10T04:47:19.031Z,9.23
2022-12-10T04:49:51.271Z,9.44
2022-12-10T04:52:23.539Z,9.57
2022-12-10T04:54:55.649Z,9.65
2022-12-10T04:57:27.749Z,9.48
2022-12-10T04:59:59.895Z,8.29
2022-12-10T05:02:32.818Z,7.00
2022-12-10T05:05:05.253Z,6.24
2022-12-10T05:07:38.021Z,6.59
2022-12-10T05:10:11.498Z,7.15
2022-12-10T05:12:44.083Z,7.41
2022-12-10T05:15:16.421Z,7.75
2022-12-10T05:17:48.702Z,7.97
2022-12-10T05:20:20.949Z,8.21
2022-12-10T05:23:10.596Z,8.22
2022-12-10T05:25:53.871Z,8.32
2022-12-10T05:28:26.510Z,8.39
2022-12-10T05:30:59.473Z,8.41
2022-12-10T05:33:31.807Z,8.23
2022-12-10T05:36:06.066Z,8.29
2022-12-10T05:38:38.184Z,8.42
2022-12-10T05:41:13.497Z,8.66
2022-12-10T05:43:46.590Z,8.93
2022-12-10T05:46:21.535Z,9.14
2022-12-10T05:48:55.188Z,9.20
2022-12-10T05:51:30.679Z,9.00
2022-12-10T05:54:04.591Z,7.89
2022-12-10T05:56:37.496Z,6.78
2022-12-10T05:59:16.582Z,5.90
2022-12-10T06:01:49.199Z,5.45
2022-12-10T06:04:21.563Z,6.02
2022-12-10T06:06:53.917Z,6.82
2022-12-10T06:09:26.226Z,7.24
2022-12-10T06:11:58.604Z,7.69
2022-12-10T06:14:30.903Z,8.08
2022-12-10T06:17:03.176Z,8.33
2022-12-10T06:19:35.498Z,8.15
2022-12-10T06:22:07.834Z,8.07
2022-12-10T06:24:40.270Z,8.35
2022-12-10T06:27:12.788Z,8.48
2022-12-10T06:29:46.478Z,8.61
2022-12-10T06:32:18.773Z,8.80
2022-12-10T06:34:51.058Z,8.83
2022-12-10T06:37:23.368Z,8.81
2022-12-10T06:39:55.937Z,8.57
2022-12-10T06:42:28.234Z,8.52
2022-12-10T06:45:00.349Z,8.69
2022-12-10T06:47:32.769Z,8.77
2022-12-10T06:50:05.669Z,8.89
2022-12-10T06:52:37.971Z,8.99
2022-12-10T06:55:11.029Z,9.10
2022-12-10T06:57:43.425Z,8.92
2022-12-10T07:00:21.743Z,7.73
2022-12-10T07:02:55.531Z,6.39
2022-12-10T07:05:27.966Z,5.37
2022-12-10T07:08:00.445Z,4.89
2022-12-10T07:10:33.012Z,5.50
2022-12-10T07:13:05.192Z,6.20
2022-12-10T07:15:37.346Z,6.87
2022-12-10T07:18:09.526Z,7.42
2022-12-10T07:20:41.784Z,7.79
2022-12-10T07:23:14.089Z,8.03
2022-12-10T07:25:46.315Z,8.03
2022-12-10T07:28:19.752Z,8.01
2022-12-10T07:30:52.338Z,8.17
2022-12-10T07:33:24.615Z,8.32
2022-12-10T07:35:57.617Z,8.19
2022-12-10T07:38:29.773Z,8.00
2022-12-10T07:41:04.505Z,8.03
2022-12-10T07:43:39.034Z,8.07
2022-12-10T07:46:13.503Z,8.02
2022-12-10T07:48:47.186Z,8.13
2022-12-10T07:51:21.916Z,8.11
2022-12-10T07:53:55.841Z,8.06
2022-12-10T07:56:28.454Z,8.09
2022-12-10T07:59:00.580Z,8.17
2022-12-10T08:01:32.909Z,8.38
2022-12-10T08:04:05.593Z,8.43
2022-12-10T08:06:37.826Z,8.62
2022-12-10T08:09:10.169Z,8.71
2022-12-10T08:11:42.449Z,8.74
2022-12-10T08:14:14.733Z,8.70
2022-12-10T08:16:47.058Z,8.64
2022-12-10T08:19:23.764Z,8.61
2022-12-10T08:21:58.283Z,8.63
2022-12-10T08:24:30.623Z,8.53
2022-12-10T08:27:02.801Z,7.52
2022-12-10T08:29:35.214Z,6.20
2022-12-10T08:32:07.777Z,5.40
2022-12-10T08:34:40.108Z,5.90
2022-12-10T08:37:12.691Z,6.74
2022-12-10T08:39:45.089Z,7.19
2022-12-10T08:42:17.990Z,7.50
2022-12-10T08:44:51.952Z,7.63
2022-12-10T08:47:24.214Z,7.77
2022-12-10T08:49:56.466Z,8.03
2022-12-10T08:52:31.764Z,8.14
2022-12-10T08:55:04.486Z,8.22
2022-12-10T08:57:36.655Z,8.37
2022-12-10T09:00:11.642Z,8.48
2022-12-10T09:02:44.016Z,8.41
2022-12-10T09:05:16.407Z,8.38
2022-12-10T09:07:49.099Z,8.50
2022-12-10T09:10:23.128Z,8.51
2022-12-10T09:12:59.885Z,8.61
2022-12-10T09:15:35.238Z,8.41
2022-12-10T09:18:07.689Z,7.28
2022-12-10T09:20:40.533Z,6.18
2022-12-10T09:23:12.934Z,5.55
2022-12-10T09:25:45.057Z,6.13
2022-12-10T09:28:20.303Z,6.91
2022-12-10T09:31:01.405Z,7.29
2022-12-10T09:33:34.615Z,7.38
2022-12-10T09:36:09.560Z,7.55
2022-12-10T09:38:44.833Z,7.90
2022-12-10T09:41:34.846Z,7.98
2022-12-10T09:44:13.454Z,7.97
2022-12-10T09:46:53.961Z,8.00
2022-12-10T09:49:35.866Z,8.05
2022-12-10T09:52:13.586Z,7.99
2022-12-10T09:54:50.417Z,7.93
2022-12-10T09:57:28.118Z,8.02
2022-12-10T10:00:04.105Z,8.18
2022-12-10T10:02:43.989Z,8.42
2022-12-10T10:05:22.685Z,8.52
2022-12-10T10:07:57.769Z,8.27
2022-12-10T10:10:32.697Z,7.15
2022-12-10T10:13:18.663Z,6.00
2022-12-10T10:15:51.913Z,5.25
2022-12-10T10:18:38.962Z,5.65
2022-12-10T10:21:22.815Z,6.21
2022-12-10T10:23:56.384Z,6.59
2022-12-10T10:26:29.946Z,7.00
2022-12-10T10:29:06.919Z,7.40
2022-12-10T10:31:43.257Z,7.79
2022-12-10T10:34:21.714Z,7.79
2022-12-10T10:36:59.920Z,7.81
2022-12-10T10:39:35.882Z,8.11
2022-12-10T10:42:12.459Z,8.34
2022-12-10T10:44:46.189Z,8.58
2022-12-10T10:47:35.042Z,8.81
2022-12-10T10:50:25.364Z,8.55
2022-12-10T10:52:57.706Z,7.30
2022-12-10T10:55:36.898Z,6.30
2022-12-10T10:58:18.002Z,5.45
2022-12-10T11:00:59.826Z,5.03
2022-12-10T11:03:35.532Z,5.68
2022-12-10T11:06:11.115Z,6.20
2022-12-10T11:08:47.093Z,6.49
2022-12-10T11:11:24.635Z,6.60
2022-12-10T11:14:14.717Z,7.04
2022-12-10T11:16:47.126Z,7.63
2022-12-10T11:19:27.691Z,7.85
2022-12-10T11:22:21.825Z,7.79
2022-12-10T11:24:54.179Z,7.80
2022-12-10T11:27:49.404Z,8.26
2022-12-10T11:30:25.176Z,8.34
2022-12-10T11:33:14.685Z,7.32
2022-12-10T11:36:04.744Z,6.20
2022-12-10T11:38:47.448Z,5.31
2022-12-10T11:41:31.548Z,4.93
2022-12-10T11:44:18.480Z,5.51
2022-12-10T11:47:04.485Z,6.34
2022-12-10T11:49:44.574Z,7.13
2022-12-10T11:52:26.745Z,7.61
2022-12-10T11:55:15.315Z,7.91
2022-12-10T11:57:53.672Z,8.22
2022-12-10T12:00:29.729Z,8.40
2022-12-10T12:03:41.822Z,8.44
2022-12-10T12:06:33.335Z,7.47
2022-12-10T12:09:11.503Z,6.25
2022-12-10T12:11:56.948Z,5.31
2022-12-10T12:14:33.784Z,4.93
2022-12-10T12:17:11.959Z,5.88
2022-12-10T12:19:48.559Z,6.88
2022-12-10T12:22:28.121Z,7.50
2022-12-10T12:25:04.630Z,7.91
2022-12-10T12:27:41.135Z,8.12
2022-12-10T12:30:20.217Z,8.20
2022-12-10T12:32:58.300Z,8.14
2022-12-10T12:35:40.946Z,7.10
2022-12-10T12:38:29.444Z,6.01
2022-12-10T12:41:06.036Z,5.12
2022-12-10T12:43:46.970Z,4.75
2022-12-10T12:46:23.325Z,5.40
2022-12-10T12:49:04.062Z,5.75
2022-12-10T12:51:42.262Z,5.96
2022-12-10T12:54:15.153Z,6.71
2022-12-10T12:57:00.618Z,7.29
2022-12-10T12:59:54.425Z,7.65
2022-12-10T13:02:52.913Z,8.00
2022-12-10T13:05:31.071Z,7.96
2022-12-10T13:08:30.959Z,7.75
2022-12-10T13:11:17.960Z,7.57
2022-12-10T13:14:20.609Z,7.68
2022-12-10T13:17:04.555Z,7.95
2022-12-10T13:19:37.673Z,8.12
2022-12-10T13:22:12.762Z,7.93
2022-12-10T13:25:17.459Z,6.80
2022-12-10T13:28:17.966Z,5.45
2022-12-10T13:31:21.520Z,4.74
2022-12-10T13:34:26.000Z,5.30
2022-12-10T13:37:20.313Z,5.46
2022-12-10T13:40:02.455Z,5.49
2022-12-10T13:42:56.324Z,5.53
2022-12-10T13:45:33.511Z,5.94
2022-12-10T13:48:37.277Z,6.42
2022-12-10T13:51:21.258Z,6.70
2022-12-10T13:54:16.893Z,6.94
2022-12-10T13:57:00.904Z,6.90
2022-12-10T13:59:45.556Z,6.86
2022-12-10T14:03:03.285Z,6.79
2022-12-10T14:05:57.830Z,6.78
2022-12-10T14:08:34.199Z,6.81
2022-12-10T14:11:14.021Z,7.07
2022-12-10T14:13:49.936Z,7.38
2022-12-10T14:16:25.362Z,7.47
2022-12-10T14:19:01.238Z,7.82
2022-12-10T14:21:38.038Z,8.14
2022-12-10T14:24:30.503Z,8.02
2022-12-10T14:27:07.795Z,6.57
2022-12-10T14:29:40.075Z,5.34
2022-12-10T14:32:18.803Z,4.70
2022-12-10T14:34:54.536Z,5.56
2022-12-10T14:37:29.297Z,6.33
2022-12-10T14:40:02.208Z,6.66
2022-12-10T14:42:35.244Z,6.75
2022-12-10T14:45:15.548Z,6.80
2022-12-10T14:47:49.570Z,6.85
2022-12-10T14:50:21.879Z,7.05
2022-12-10T14:52:55.487Z,7.21
2022-12-10T14:55:28.414Z,7.22
2022-12-10T14:58:03.741Z,7.30
2022-12-10T15:00:37.188Z,7.23
2022-12-10T15:03:21.167Z,7.30
2022-12-10T15:06:03.239Z,7.33
2022-12-10T15:08:35.832Z,7.23
2022-12-10T15:11:08.234Z,7.18
2022-12-10T15:13:44.121Z,7.08
2022-12-10T15:16:22.405Z,6.99
2022-12-10T15:18:55.864Z,7.07
2022-12-10T15:21:29.015Z,6.88
2022-12-10T15:24:18.737Z,7.05
2022-12-10T15:26:52.347Z,7.20
2022-12-10T15:29:40.184Z,7.36
2022-12-10T15:32:18.417Z,7.53
2022-12-10T15:34:55.161Z,7.39
2022-12-10T15:37:30.142Z,6.20
2022-12-10T15:40:05.527Z,5.08
2022-12-10T15:42:46.254Z,4.44
2022-12-10T15:45:29.345Z,5.03
2022-12-10T15:48:01.981Z,5.65
2022-12-10T15:50:34.305Z,6.00
2022-12-10T15:53:06.580Z,6.38
2022-12-10T15:55:38.756Z,6.78
2022-12-10T15:58:14.945Z,7.05
2022-12-10T16:00:47.948Z,7.25
2022-12-10T16:03:20.639Z,7.29
2022-12-10T16:05:52.899Z,7.20
2022-12-10T16:08:28.099Z,7.14
2022-12-10T16:11:05.090Z,7.31
2022-12-10T16:13:41.417Z,7.43
2022-12-10T16:16:14.563Z,7.26
2022-12-10T16:18:46.954Z,6.08
2022-12-10T16:21:19.528Z,4.83
2022-12-10T16:23:51.760Z,4.15
2022-12-10T16:26:25.031Z,4.74
2022-12-10T16:28:57.167Z,5.58
2022-12-10T16:31:30.943Z,6.18
2022-12-10T16:34:03.353Z,6.65
2022-12-10T16:36:37.285Z,6.93
2022-12-10T16:39:10.339Z,7.15
2022-12-10T16:41:43.123Z,7.24
2022-12-10T16:44:15.410Z,7.32
2022-12-10T16:46:47.650Z,7.36
2022-12-10T16:49:19.956Z,7.15
2022-12-10T16:51:53.045Z,5.91
2022-12-10T16:54:25.188Z,4.59
2022-12-10T16:56:57.340Z,3.89
2022-12-10T16:59:29.458Z,4.48
2022-12-10T17:02:01.770Z,5.29
2022-12-10T17:04:34.226Z,5.97
2022-12-10T17:07:08.472Z,6.43
2022-12-10T17:09:40.772Z,6.59
2022-12-10T17:12:13.205Z,6.70
2022-12-10T17:14:48.013Z,6.71
2022-12-10T17:17:20.295Z,6.88
2022-12-10T17:19:52.452Z,7.10
2022-12-10T17:22:24.571Z,7.21
2022-12-10T17:24:56.702Z,6.92
2022-12-10T17:27:28.826Z,5.69
2022-12-10T17:30:02.000Z,4.44
2022-12-10T17:32:34.178Z,3.74
2022-12-10T17:35:08.669Z,4.20
2022-12-10T17:37:43.806Z,4.89
2022-12-10T17:40:19.911Z,5.40
2022-12-10T17:42:52.508Z,5.63
2022-12-10T17:45:24.802Z,5.68
2022-12-10T17:47:58.528Z,5.76
2022-12-10T17:50:34.226Z,5.81
2022-12-10T17:53:10.602Z,5.93
2022-12-10T17:55:48.264Z,6.16
2022-12-10T17:58:24.217Z,6.11
2022-12-10T18:00:57.298Z,6.35
2022-12-10T18:03:29.539Z,6.50
2022-12-10T18:06:01.690Z,6.54
2022-12-10T18:08:34.250Z,6.62
2022-12-10T18:11:06.404Z,6.67
2022-12-10T18:13:41.298Z,6.61
2022-12-10T18:16:18.435Z,6.66
2022-12-10T18:18:50.986Z,6.80
2022-12-10T18:21:23.967Z,6.91
2022-12-10T18:23:57.498Z,6.98
2022-12-10T18:26:31.444Z,6.77
2022-12-10T18:29:05.366Z,5.43
2022-12-10T18:31:38.416Z,4.08
2022-12-10T18:34:13.205Z,3.37
2022-12-10T18:36:47.352Z,3.88
2022-12-10T18:39:22.041Z,4.53
2022-12-10T18:41:55.147Z,5.08
2022-12-10T18:44:31.174Z,5.61
2022-12-10T18:47:03.361Z,5.93
2022-12-10T18:49:35.905Z,6.13
2022-12-10T18:52:08.227Z,6.31
2022-12-10T18:54:41.135Z,6.46
2022-12-10T18:57:34.721Z,6.56
2022-12-10T19:00:16.689Z,6.66
2022-12-10T19:02:51.363Z,6.75
2022-12-10T19:05:23.962Z,6.86
2022-12-10T19:07:56.322Z,6.87
2022-12-10T19:10:28.931Z,6.78
2022-12-10T19:13:01.171Z,6.83
2022-12-10T19:15:38.348Z,6.93
2022-12-10T19:18:17.595Z,6.96
2022-12-10T19:20:53.231Z,6.97
2022-12-10T19:23:29.477Z,6.97
2022-12-10T19:26:01.932Z,6.96
2022-12-10T19:28:34.895Z,7.02
2022-12-10T19:31:07.293Z,6.88
2022-12-10T19:33:39.478Z,5.61
2022-12-10T19:36:17.258Z,4.25
2022-12-10T19:38:49.947Z,3.55
2022-12-10T19:41:22.112Z,4.17
2022-12-10T19:43:54.728Z,4.91
2022-12-10T19:46:28.298Z,5.24
2022-12-10T19:49:00.506Z,5.37
2022-12-10T19:51:32.704Z,5.36
2022-12-10T19:54:05.195Z,5.04
2022-12-10T19:56:38.202Z,4.81
2022-12-10T19:59:16.307Z,4.56
2022-12-10T20:01:49.029Z,4.73
2022-12-10T20:04:21.583Z,5.04
2022-12-10T20:06:55.012Z,5.17
2022-12-10T20:09:28.297Z,5.42
2022-12-10T20:12:00.432Z,5.28
2022-12-10T20:14:32.615Z,5.10
2022-12-10T20:17:04.768Z,5.25
2022-12-10T20:19:37.115Z,5.40
2022-12-10T20:22:09.505Z,5.36
2022-12-10T20:24:41.617Z,5.44
2022-12-10T20:27:16.866Z,5.54
2022-12-10T20:29:49.098Z,5.46
2022-12-10T20:32:22.257Z,5.55
2022-12-10T20:34:55.073Z,5.81
2022-12-10T20:37:27.630Z,6.03
2022-12-10T20:40:29.716Z,6.21
2022-12-10T20:42:52.682Z,6.43
2022-12-10T20:45:24.984Z,6.59
2022-12-10T20:47:57.559Z,6.66
2022-12-10T20:50:29.804Z,6.72
2022-12-10T20:53:01.929Z,6.81
2022-12-10T20:55:34.110Z,6.86
2022-12-10T20:58:06.303Z,6.86
2022-12-10T21:00:38.661Z,6.88
2022-12-10T21:03:10.867Z,6.86
2022-12-10T21:05:43.012Z,6.82
2022-12-10T21:08:18.324Z,6.71
2022-12-10T21:10:54.983Z,6.72
2022-12-10T21:13:29.246Z,6.74
2022-12-10T21:16:04.057Z,6.74
2022-12-10T21:18:36.329Z,6.80
2022-12-10T21:21:09.254Z,6.85
2022-12-10T21:23:41.803Z,6.58
2022-12-10T21:26:14.618Z,5.37
2022-12-10T21:28:49.990Z,4.11
2022-12-10T21:31:24.878Z,3.34
2022-12-10T21:33:57.111Z,3.83
2022-12-10T21:36:30.716Z,4.63
2022-12-10T21:39:03.833Z,5.28
2022-12-10T21:41:53.617Z,5.60
2022-12-10T21:44:25.777Z,5.61
2022-12-10T21:46:57.964Z,5.58
2022-12-10T21:49:30.116Z,5.56
2022-12-10T21:52:02.246Z,5.78
2022-12-10T21:54:34.482Z,5.97
2022-12-10T21:57:06.731Z,5.99
2022-12-10T21:59:38.991Z,5.99
2022-12-10T22:02:12.299Z,6.02
2022-12-10T22:04:44.430Z,5.99
2022-12-10T22:07:18.070Z,5.99
2022-12-10T22:09:50.543Z,6.02
2022-12-10T22:12:22.922Z,6.03
2022-12-10T22:14:55.074Z,6.00
2022-12-10T22:17:27.987Z,5.83
2022-12-10T22:20:00.522Z,5.75
2022-12-10T22:22:34.943Z,5.84
2022-12-10T22:25:09.748Z,6.12
2022-12-10T22:27:42.231Z,6.35
2022-12-10T22:30:15.482Z,6.46
2022-12-10T22:32:48.189Z,6.53
2022-12-10T22:35:21.058Z,6.61
2022-12-10T22:37:55.307Z,6.65
2022-12-10T22:40:27.621Z,6.71
2022-12-10T22:43:15.062Z,6.72
2022-12-10T22:45:56.593Z,6.66
2022-12-10T22:48:29.132Z,6.43
2022-12-10T22:51:06.389Z,5.44
2022-12-10T22:53:38.646Z,4.15
2022-12-10T22:56:13.317Z,3.30
2022-12-10T22:58:45.943Z,3.47
2022-12-10T23:01:19.485Z,4.39
2022-12-10T23:03:53.547Z,5.07
2022-12-10T23:06:27.066Z,5.44
2022-12-10T23:08:59.617Z,5.66
2022-12-10T23:11:31.737Z,5.84
2022-12-10T23:14:03.827Z,5.97
2022-12-10T23:16:36.022Z,6.05
2022-12-10T23:19:08.287Z,6.13
2022-12-10T23:21:40.555Z,6.12
2022-12-10T23:24:13.093Z,6.19
2022-12-10T23:26:45.425Z,6.34
2022-12-10T23:29:17.694Z,6.44
2022-12-10T23:31:49.852Z,6.53
2022-12-10T23:34:22.239Z,6.64
2022-12-10T23:36:54.461Z,6.61
2022-12-10T23:39:26.564Z,6.52
2022-12-10T23:41:58.861Z,6.46
2022-12-10T23:44:31.043Z,6.55
2022-12-10T23:47:03.229Z,6.53
2022-12-10T23:49:35.690Z,6.49
2022-12-10T23:52:10.067Z,6.40
2022-12-10T23:54:42.827Z,6.43
2022-12-10T23:57:15.039Z,6.55
2022-12-10T23:59:47.339Z,6.58
